createdAt,value
2018-07-20T00:00:47.169Z,16.9
2018-07-20T00:01:37.227Z,16.8
2018-07-20T00:02:27.297Z,16.8
2018-07-20T00:03:17.090Z,16.9
2018-07-20T00:04:07.152Z,16.9
2018-07-20T00:04:57.503Z,16.9
2018-07-20T00:05:47.538Z,16.8
2018-07-20T00:06:37.614Z,16.8
2018-07-20T00:07:27.689Z,16.9
2018-07-20T00:08:17.778Z,16.9
2018-07-20T00:09:07.843Z,16.9
2018-07-20T00:09:57.860Z,16.9
2018-07-20T00:10:47.420Z,16.9
2018-07-20T00:11:37.989Z,16.9
2018-07-20T00:12:28.067Z,16.9
2018-07-20T00:13:17.361Z,16.9
2018-07-20T00:14:07.723Z,16.8
2018-07-20T00:14:57.509Z,16.9
2018-07-20T00:15:47.550Z,16.9
2018-07-20T00:16:37.994Z,16.8
2018-07-20T00:17:27.954Z,16.8
2018-07-20T00:18:18.031Z,16.9
2018-07-20T00:19:07.822Z,16.9
2018-07-20T00:19:58.346Z,16.9
2018-07-20T00:20:48.721Z,16.9
2018-07-20T00:21:38.026Z,16.9
2018-07-20T00:22:28.562Z,16.9
2018-07-20T00:23:18.883Z,16.9
2018-07-20T00:24:08.943Z,16.9
2018-07-20T00:24:59.054Z,16.9
2018-07-20T00:25:49.082Z,16.9
2018-07-20T00:26:39.159Z,16.9
2018-07-20T00:27:29.223Z,16.8
2018-07-20T00:28:19.012Z,16.9
2018-07-20T00:29:09.068Z,16.9
2018-07-20T00:29:59.124Z,16.9
2018-07-20T00:30:49.495Z,16.9
2018-07-20T00:31:39.520Z,16.9
2018-07-20T00:32:29.041Z,16.9
2018-07-20T00:33:19.372Z,16.9
2018-07-20T00:34:09.468Z,16.9
2018-07-20T00:34:59.782Z,16.9
2018-07-20T00:35:49.864Z,16.9
2018-07-20T00:36:39.380Z,16.9
2018-07-20T00:37:29.706Z,16.9
2018-07-20T00:38:20.094Z,16.9
2018-07-20T00:39:10.093Z,16.9
2018-07-20T00:39:59.914Z,16.9
2018-07-20T00:40:49.946Z,16.9
2018-07-20T00:41:40.002Z,16.9
2018-07-20T00:49:10.857Z,17.1
2018-07-20T00:50:00.925Z,17.1
2018-07-20T00:50:50.987Z,17.1
2018-07-20T00:51:40.777Z,17.1
2018-07-20T00:52:31.099Z,17.1
2018-07-20T00:53:20.891Z,17.1
2018-07-20T00:54:11.247Z,17.1
2018-07-20T00:55:01.027Z,17.1
2018-07-20T00:55:51.102Z,17.2
2018-07-20T00:56:41.434Z,17.2
2018-07-20T00:57:31.233Z,17.3
2018-07-20T00:58:21.280Z,17.3
2018-07-20T00:59:11.624Z,17.3
2018-07-20T01:00:01.428Z,17.3
2018-07-20T01:00:51.470Z,17.3
2018-07-20T01:01:41.812Z,17.3
2018-07-20T01:02:31.637Z,17.3
2018-07-20T01:03:21.668Z,17.3
2018-07-20T01:04:12.002Z,17.3
2018-07-20T01:05:02.075Z,17.3
2018-07-20T01:05:52.140Z,17.3
2018-07-20T01:06:42.209Z,17.4
2018-07-20T01:07:32.263Z,17.4
2018-07-20T01:08:22.318Z,17.4
2018-07-20T01:09:12.372Z,17.4
2018-07-20T01:10:02.190Z,17.4
2018-07-20T01:10:52.528Z,17.4
2018-07-20T01:11:42.094Z,17.4
2018-07-20T01:12:32.647Z,17.4
2018-07-20T01:13:21.944Z,17.4
2018-07-20T01:14:12.244Z,17.4
2018-07-20T01:15:02.848Z,17.4
2018-07-20T01:15:52.427Z,17.4
2018-07-20T01:16:42.474Z,17.5
2018-07-20T01:17:32.271Z,17.4
2018-07-20T01:18:22.616Z,17.5
2018-07-20T01:19:12.677Z,17.5
2018-07-20T01:20:02.751Z,17.5
2018-07-20T01:20:52.786Z,17.5
2018-07-20T01:21:42.847Z,17.5
2018-07-20T01:22:33.112Z,17.5
2018-07-20T01:23:23.492Z,17.5
2018-07-20T01:24:13.256Z,17.5
2018-07-20T01:25:03.591Z,17.5
2018-07-20T01:25:53.668Z,17.5
2018-07-20T01:26:43.487Z,17.5
2018-07-20T01:27:33.782Z,17.5
2018-07-20T01:28:23.854Z,17.5
2018-07-20T01:29:13.633Z,17.5
2018-07-20T01:30:04.069Z,17.5
2018-07-20T01:30:54.033Z,17.5
2018-07-20T01:31:44.078Z,17.4
2018-07-20T01:32:34.169Z,17.4
2018-07-20T01:33:24.234Z,17.4
2018-07-20T01:34:14.002Z,17.4
2018-07-20T01:35:04.364Z,17.4
2018-07-20T01:35:54.138Z,17.4
2018-07-20T01:36:44.468Z,17.4
2018-07-20T01:37:34.257Z,17.4
2018-07-20T01:38:24.611Z,17.4
2018-07-20T01:39:14.401Z,17.4
2018-07-20T01:40:04.735Z,17.4
2018-07-20T01:40:54.525Z,17.4
2018-07-20T01:41:44.876Z,17.4
2018-07-20T01:42:34.946Z,17.3
2018-07-20T01:43:24.434Z,17.3
2018-07-20T01:44:14.478Z,17.3
2018-07-20T01:45:04.824Z,17.3
2018-07-20T01:45:55.237Z,17.3
2018-07-20T01:46:45.239Z,17.3
2018-07-20T01:47:35.049Z,17.3
2018-07-20T01:48:25.385Z,17.3
2018-07-20T01:49:15.440Z,17.3
2018-07-20T01:50:05.486Z,17.3
2018-07-20T01:50:55.288Z,17.3
2018-07-20T01:51:45.633Z,17.3
2018-07-20T01:52:35.413Z,17.3
2018-07-20T01:53:25.493Z,17.3
2018-07-20T01:54:15.838Z,17.3
2018-07-20T01:55:05.890Z,17.3
2018-07-20T01:55:55.928Z,17.3
2018-07-20T01:56:46.010Z,17.3
2018-07-20T01:57:35.798Z,17.3
2018-07-20T01:58:26.151Z,17.3
2018-07-20T01:59:16.189Z,17.3
2018-07-20T02:00:05.976Z,17.3
2018-07-20T02:00:56.051Z,17.3
2018-07-20T02:01:46.115Z,17.3
2018-07-20T02:02:36.434Z,17.3
2018-07-20T02:03:26.235Z,17.3
2018-07-20T02:04:16.575Z,17.3
2018-07-20T02:05:06.677Z,17.3
2018-07-20T02:05:56.445Z,17.3
2018-07-20T02:06:46.762Z,17.3
2018-07-20T02:07:36.822Z,17.3
2018-07-20T02:08:26.882Z,17.3
2018-07-20T02:09:16.668Z,17.3
2018-07-20T02:10:07.030Z,17.3
2018-07-20T02:10:57.100Z,17.3
2018-07-20T02:11:46.858Z,17.3
2018-07-20T02:12:37.209Z,17.3
2018-07-20T02:13:27.012Z,17.3
2018-07-20T02:14:17.344Z,17.3
2018-07-20T02:15:07.431Z,17.3
2018-07-20T02:15:57.485Z,17.3
2018-07-20T02:16:47.261Z,17.3
2018-07-20T02:17:37.315Z,17.3
2018-07-20T02:18:27.712Z,17.3
2018-07-20T02:19:17.467Z,17.3
2018-07-20T02:20:07.820Z,17.3
2018-07-20T02:20:57.863Z,17.3
2018-07-20T02:21:47.923Z,17.3
2018-07-20T02:22:37.721Z,17.3
2018-07-20T02:23:28.058Z,17.3
2018-07-20T02:24:17.822Z,17.3
2018-07-20T02:25:07.890Z,17.2
2018-07-20T02:25:58.231Z,17.2
2018-07-20T02:26:48.334Z,17.2
2018-07-20T02:27:38.072Z,17.2
2018-07-20T02:28:28.136Z,17.2
2018-07-20T02:29:18.232Z,17.2
2018-07-20T02:30:08.568Z,17.2
2018-07-20T02:30:58.624Z,17.2
2018-07-20T02:31:48.406Z,17.1
2018-07-20T02:32:38.764Z,17.1
2018-07-20T02:33:28.537Z,17.1
2018-07-20T02:34:18.599Z,17.1
2018-07-20T02:35:08.934Z,17.1
2018-07-20T02:35:58.717Z,17.1
2018-07-20T02:36:48.781Z,17.1
2018-07-20T02:37:38.563Z,17.1
2018-07-20T02:38:29.168Z,17.1
2018-07-20T02:39:19.283Z,17.1
2018-07-20T02:40:09.327Z,17.1
2018-07-20T02:40:59.102Z,17.1
2018-07-20T02:51:00.146Z,16.9
2018-07-20T02:51:49.939Z,16.9
2018-07-20T02:52:40.013Z,16.9
2018-07-20T02:53:30.039Z,16.9
2018-07-20T02:54:20.413Z,16.9
2018-07-20T02:55:10.198Z,16.9
2018-07-20T02:56:00.250Z,16.9
2018-07-20T02:56:49.841Z,16.9
2018-07-20T02:57:40.674Z,16.9
2018-07-20T02:58:29.943Z,16.9
2018-07-20T02:59:20.016Z,16.9
2018-07-20T03:00:10.363Z,16.9
2018-07-20T03:01:00.437Z,16.9
2018-07-20T03:01:49.926Z,16.9
2018-07-20T03:02:40.562Z,16.9
2018-07-20T03:03:30.357Z,16.9
2018-07-20T03:04:20.688Z,16.9
2018-07-20T03:05:10.461Z,16.9
2018-07-20T03:06:00.791Z,16.9
2018-07-20T03:06:50.582Z,16.9
2018-07-20T03:07:40.655Z,16.9
2018-07-20T03:08:31.468Z,16.9
2018-07-20T03:09:20.805Z,16.9
2018-07-20T03:10:11.330Z,16.9
2018-07-20T03:11:01.662Z,16.9
2018-07-20T03:11:50.982Z,16.9
2018-07-20T03:12:41.797Z,16.9
2018-07-20T03:13:31.867Z,16.9
2018-07-20T03:14:21.651Z,16.9
2018-07-20T03:15:11.531Z,16.9
2018-07-20T03:16:01.480Z,16.9
2018-07-20T03:16:52.111Z,16.9
2018-07-20T03:17:42.184Z,16.9
2018-07-20T03:18:32.234Z,16.9
2018-07-20T03:19:22.299Z,16.9
2018-07-20T03:20:12.364Z,16.9
2018-07-20T03:21:02.871Z,16.9
2018-07-20T03:21:52.207Z,16.9
2018-07-20T03:22:42.018Z,16.9
2018-07-20T03:23:32.635Z,16.9
2018-07-20T03:24:22.704Z,16.9
2018-07-20T03:25:12.887Z,16.9
2018-07-20T03:29:22.813Z,17.1
2018-07-20T03:30:12.586Z,17.1
2018-07-20T03:31:02.930Z,17.1
2018-07-20T03:31:53.277Z,17.1
2018-07-20T03:32:43.297Z,17.1
2018-07-20T03:33:32.888Z,17.1
2018-07-20T03:34:22.908Z,17.1
2018-07-20T03:35:13.543Z,17.1
2018-07-20T03:36:03.571Z,17.1
2018-07-20T03:36:53.088Z,17.2
2018-07-20T03:37:43.743Z,17.2
2018-07-20T03:38:33.734Z,17.2
2018-07-20T03:39:23.542Z,17.2
2018-07-20T03:40:13.905Z,17.3
2018-07-20T03:41:03.973Z,17.3
2018-07-20T03:41:53.531Z,17.3
2018-07-20T03:42:43.308Z,17.3
2018-07-20T03:43:33.656Z,17.3
2018-07-20T03:44:23.706Z,17.3
2018-07-20T03:45:13.790Z,17.3
2018-07-20T03:46:03.847Z,17.4
2018-07-20T03:46:53.947Z,17.4
2018-07-20T03:47:43.987Z,17.4
2018-07-20T03:48:34.252Z,17.4
2018-07-20T03:49:23.817Z,17.4
2018-07-20T03:50:14.650Z,17.4
2018-07-20T03:51:04.422Z,17.5
2018-07-20T03:51:54.803Z,17.5
2018-07-20T03:52:44.842Z,17.5
2018-07-20T03:53:34.900Z,17.5
2018-07-20T03:54:25.029Z,17.5
2018-07-20T03:55:15.102Z,17.6
2018-07-20T03:56:05.109Z,17.6
2018-07-20T03:56:54.864Z,17.6
2018-07-20T03:57:45.201Z,17.6
2018-07-20T03:58:34.987Z,17.6
2018-07-20T03:59:25.354Z,17.6
2018-07-20T04:00:15.418Z,17.7
2018-07-20T04:01:05.460Z,17.7
2018-07-20T04:01:55.659Z,17.7
2018-07-20T04:02:45.052Z,17.7
2018-07-20T04:03:35.674Z,17.8
2018-07-20T04:04:25.716Z,17.8
2018-07-20T04:05:15.789Z,17.8
2018-07-20T04:06:05.870Z,17.8
2018-07-20T04:06:55.644Z,17.8
2018-07-20T04:07:46.038Z,17.9
2018-07-20T04:08:36.068Z,17.9
2018-07-20T04:09:25.837Z,17.9
2018-07-20T04:10:16.487Z,17.9
2018-07-20T04:11:06.242Z,18.1
2018-07-20T04:11:56.297Z,18.1
2018-07-20T04:12:46.349Z,18.1
2018-07-20T04:13:36.409Z,18.1
2018-07-20T04:14:26.503Z,18.2
2018-07-20T04:15:16.537Z,18.3
2018-07-20T04:16:06.612Z,18.3
2018-07-20T04:16:56.667Z,18.4
2018-07-20T04:17:46.467Z,18.4
2018-07-20T04:18:36.802Z,18.6
2018-07-20T04:19:26.896Z,18.6
2018-07-20T04:20:16.926Z,18.8
2018-07-20T04:21:07.039Z,18.8
2018-07-20T04:21:56.515Z,18.9
2018-07-20T04:22:47.136Z,19.1
2018-07-20T04:23:36.893Z,19.2
2018-07-20T04:24:27.268Z,19.3
2018-07-20T04:25:17.321Z,19.4
2018-07-20T04:26:07.086Z,19.6
2018-07-20T04:26:57.163Z,19.8
2018-07-20T04:27:47.211Z,19.9
2018-07-20T04:28:36.998Z,20
2018-07-20T04:29:27.668Z,20.2
2018-07-20T04:30:17.399Z,20.3
2018-07-20T04:31:07.811Z,20.5
2018-07-20T04:31:57.251Z,20.6
2018-07-20T04:32:47.888Z,20.8
2018-07-20T04:33:37.934Z,20.9
2018-07-20T04:35:18.082Z,21.3
2018-07-20T04:36:07.865Z,21.4
2018-07-20T04:36:58.203Z,21.6
2018-07-20T04:37:48.264Z,21.7
2018-07-20T04:38:38.310Z,21.9
2018-07-20T04:39:28.380Z,21.9
2018-07-20T04:40:18.438Z,22.1
2018-07-20T04:41:07.968Z,22.3
2018-07-20T04:41:58.563Z,22.3
2018-07-20T04:42:48.633Z,22.4
2018-07-20T04:43:38.713Z,22.5
2018-07-20T04:44:28.758Z,22.6
2018-07-20T04:45:18.547Z,22.7
2018-07-20T04:46:08.898Z,22.8
2018-07-20T04:46:58.948Z,22.8
2018-07-20T04:47:49.012Z,22.9
2018-07-20T04:48:39.101Z,22.9
2018-07-20T04:49:28.884Z,23
2018-07-20T04:50:19.203Z,23.1
2018-07-20T04:51:09.019Z,23.1
2018-07-20T04:51:58.775Z,23.2
2018-07-20T04:52:49.399Z,23.3
2018-07-20T04:53:39.201Z,23.3
2018-07-20T04:54:29.544Z,23.4
2018-07-20T04:55:19.038Z,23.4
2018-07-20T04:56:09.690Z,23.5
2018-07-20T04:56:58.965Z,23.6
2018-07-20T04:57:49.791Z,23.6
2018-07-20T04:58:39.590Z,23.6
2018-07-20T04:59:29.925Z,23.6
2018-07-20T05:00:19.985Z,23.7
2018-07-20T05:01:10.039Z,23.7
2018-07-20T05:01:59.830Z,23.8
2018-07-20T05:02:50.171Z,23.8
2018-07-20T05:03:40.361Z,23.9
2018-07-20T05:04:30.306Z,23.9
2018-07-20T05:05:19.803Z,23.9
2018-07-20T05:06:10.416Z,24
2018-07-20T05:07:00.541Z,24.1
2018-07-20T05:07:50.276Z,24.2
2018-07-20T05:08:40.763Z,24.3
2018-07-20T05:09:30.659Z,24.3
2018-07-20T05:10:20.758Z,24.4
2018-07-20T05:11:10.780Z,24.6
2018-07-20T05:12:00.863Z,24.7
2018-07-20T05:12:50.929Z,24.8
2018-07-20T05:13:40.982Z,25
2018-07-20T05:14:31.061Z,25.2
2018-07-20T05:15:20.841Z,25.4
2018-07-20T05:16:11.160Z,25.5
2018-07-20T05:17:01.226Z,25.7
2018-07-20T05:17:51.297Z,25.8
2018-07-20T05:18:41.116Z,26
2018-07-20T05:19:30.946Z,26.1
2018-07-20T05:20:21.048Z,26.3
2018-07-20T05:21:11.565Z,26.4
2018-07-20T05:22:01.605Z,26.5
2018-07-20T05:22:51.671Z,26.6
2018-07-20T05:23:41.471Z,26.7
2018-07-20T05:24:31.800Z,26.8
2018-07-20T05:25:21.866Z,26.9
2018-07-20T05:26:11.938Z,27
2018-07-20T05:27:02.023Z,27.1
2018-07-20T05:27:52.066Z,27.3
2018-07-20T05:28:41.865Z,27.3
2018-07-20T05:29:32.215Z,27.4
2018-07-20T05:30:21.961Z,27.5
2018-07-20T05:31:12.522Z,27.6
2018-07-20T05:32:02.130Z,27.6
2018-07-20T05:32:52.200Z,27.7
2018-07-20T05:33:42.507Z,27.8
2018-07-20T05:35:22.346Z,27.9
2018-07-20T05:36:12.413Z,28.1
2018-07-20T05:37:02.766Z,28.1
2018-07-20T05:37:52.811Z,28.3
2018-07-20T05:38:42.883Z,28.4
2018-07-20T05:39:32.956Z,28.6
2018-07-20T05:40:23.048Z,28.7
2018-07-20T05:41:12.800Z,28.9
2018-07-20T05:42:03.151Z,29.3
2018-07-20T05:42:53.201Z,29.6
2018-07-20T05:43:42.725Z,30.1
2018-07-20T05:44:33.337Z,30.5
2018-07-20T05:45:23.130Z,30.9
2018-07-20T05:46:12.710Z,31.4
2018-07-20T05:47:03.526Z,31.9
2018-07-20T05:47:53.297Z,32.5
2018-07-20T05:48:43.693Z,33
2018-07-20T05:49:33.716Z,33.5
2018-07-20T05:50:23.509Z,34.1
2018-07-20T05:51:13.851Z,34.6
2018-07-20T05:52:03.926Z,35.1
2018-07-20T05:52:53.969Z,35.6
2018-07-20T05:53:44.026Z,36.1
2018-07-20T05:54:34.084Z,36.5
2018-07-20T05:55:24.147Z,37
2018-07-20T05:56:13.938Z,37.4
2018-07-20T05:57:04.269Z,37.8
2018-07-20T05:57:54.334Z,38.2
2018-07-20T05:58:44.397Z,38.6
2018-07-20T05:59:34.470Z,38.9
2018-07-20T06:00:24.552Z,39.3
2018-07-20T06:01:14.651Z,39.6
2018-07-20T06:02:04.654Z,39.8
2018-07-20T06:02:54.749Z,40
2018-07-20T06:03:44.792Z,40.1
2018-07-20T06:04:34.570Z,40.3
2018-07-20T06:05:24.921Z,40.4
2018-07-20T06:06:14.718Z,40.7
2018-07-20T06:07:04.795Z,41
2018-07-20T06:07:55.162Z,41.3
2018-07-20T06:08:44.914Z,41.6
2018-07-20T06:09:34.960Z,41.9
2018-07-20T06:10:25.332Z,42.1
2018-07-20T06:11:14.621Z,42.3
2018-07-20T06:12:05.458Z,42.4
2018-07-20T06:12:55.488Z,42.5
2018-07-20T06:13:45.289Z,42.6
2018-07-20T06:14:35.359Z,42.6
2018-07-20T06:15:25.688Z,42.6
2018-07-20T06:16:15.756Z,42.6
2018-07-20T06:17:05.547Z,42.5
2018-07-20T06:17:55.596Z,42.5
2018-07-20T06:18:45.733Z,42.4
2018-07-20T06:19:35.996Z,42.5
2018-07-20T06:20:26.076Z,42.5
2018-07-20T06:21:16.137Z,42.6
2018-07-20T06:22:05.982Z,42.6
2018-07-20T06:22:55.987Z,42.6
2018-07-20T06:23:46.173Z,42.6
2018-07-20T06:24:36.387Z,42.6
2018-07-20T06:25:26.442Z,42.6
2018-07-20T06:26:16.246Z,42.5
2018-07-20T06:27:06.593Z,42.4
2018-07-20T06:27:56.650Z,42.4
2018-07-20T06:28:46.712Z,42.3
2018-07-20T06:29:36.976Z,42.1
2018-07-20T06:30:26.831Z,42
2018-07-20T06:31:16.886Z,41.9
2018-07-20T06:32:06.968Z,41.8
2018-07-20T06:32:56.815Z,41.7
2018-07-20T06:33:47.097Z,41.6
2018-07-20T06:34:37.158Z,41.4
2018-07-20T06:35:27.205Z,41.3
2018-07-20T06:36:17.018Z,41.1
2018-07-20T06:37:07.357Z,41
2018-07-20T06:37:56.855Z,40.9
2018-07-20T06:38:47.474Z,40.8
2018-07-20T06:39:37.535Z,40.6
2018-07-20T06:40:27.599Z,40.5
2018-07-20T06:41:17.383Z,40.4
2018-07-20T06:42:07.165Z,40.3
2018-07-20T06:42:57.776Z,40.1
2018-07-20T06:43:47.864Z,40.1
2018-07-20T06:44:37.949Z,39.9
2018-07-20T06:45:27.999Z,39.9
2018-07-20T06:46:17.769Z,39.8
2018-07-20T06:47:08.102Z,39.8
2018-07-20T06:47:57.884Z,39.7
2018-07-20T06:48:47.968Z,39.6
2018-07-20T06:49:38.317Z,39.5
2018-07-20T06:50:28.362Z,39.4
2018-07-20T06:51:18.149Z,39.4
2018-07-20T06:52:08.495Z,39.4
2018-07-20T06:52:58.556Z,39.5
2018-07-20T06:53:48.614Z,39.6
2018-07-20T06:54:38.689Z,39.6
2018-07-20T06:55:28.738Z,39.7
2018-07-20T06:56:18.539Z,39.8
2018-07-20T06:57:08.911Z,39.9
2018-07-20T06:57:58.921Z,40.3
2018-07-20T06:58:49.037Z,40.6
2018-07-20T06:59:38.776Z,40.9
2018-07-20T07:00:29.114Z,41.3
2018-07-20T07:01:19.201Z,41.4
2018-07-20T07:02:08.959Z,41.6
2018-07-20T07:02:59.053Z,41.7
2018-07-20T07:03:49.391Z,41.7
2018-07-20T07:04:39.433Z,41.8
2018-07-20T07:05:29.214Z,41.8
2018-07-20T07:06:19.636Z,41.7
2018-07-20T07:07:09.094Z,41.7
2018-07-20T07:07:59.468Z,41.6
2018-07-20T07:08:49.211Z,41.6
2018-07-20T07:09:39.824Z,41.7
2018-07-20T07:10:29.888Z,41.7
2018-07-20T07:11:19.509Z,41.7
2018-07-20T07:12:10.007Z,41.8
2018-07-20T07:12:59.807Z,41.8
2018-07-20T07:13:50.130Z,41.9
2018-07-20T07:14:39.652Z,42.1
2018-07-20T07:15:30.290Z,42.2
2018-07-20T07:16:20.170Z,42.3
2018-07-20T07:17:10.417Z,42.3
2018-07-20T07:18:00.472Z,42.3
2018-07-20T07:18:50.573Z,42.3
2018-07-20T07:19:40.601Z,42.1
2018-07-20T07:20:30.670Z,41.9
2018-07-20T07:21:20.450Z,41.8
2018-07-20T07:22:10.836Z,41.6
2018-07-20T07:23:00.854Z,41.4
2018-07-20T07:23:50.950Z,41.3
2018-07-20T07:24:40.700Z,41.1
2018-07-20T07:25:31.033Z,40.9
2018-07-20T07:26:21.114Z,40.7
2018-07-20T07:27:11.159Z,40.5
2018-07-20T07:28:01.245Z,40.3
2018-07-20T07:28:51.309Z,40.2
2018-07-20T07:29:41.401Z,40
2018-07-20T07:30:31.134Z,39.8
2018-07-20T07:31:21.495Z,39.7
2018-07-20T07:32:11.551Z,39.5
2018-07-20T07:33:01.624Z,39.4
2018-07-20T07:33:51.657Z,39.3
2018-07-20T07:34:41.742Z,39.1
2018-07-20T07:35:31.534Z,38.9
2018-07-20T07:36:21.871Z,38.8
2018-07-20T07:37:11.938Z,38.6
2018-07-20T07:38:01.998Z,38.5
2018-07-20T07:38:51.785Z,38.4
2018-07-20T07:39:41.848Z,38.3
2018-07-20T07:40:32.187Z,38.2
2018-07-20T07:41:22.286Z,38.2
2018-07-20T07:42:12.696Z,38.2
2018-07-20T07:43:02.368Z,38.2
2018-07-20T07:43:52.181Z,38.3
2018-07-20T07:44:42.502Z,38.3
2018-07-20T07:45:32.281Z,38.4
2018-07-20T07:46:22.057Z,38.5
2018-07-20T07:47:12.712Z,38.5
2018-07-20T07:48:02.469Z,38.6
2018-07-20T07:48:52.791Z,38.6
2018-07-20T07:49:42.868Z,38.6
2018-07-20T07:50:32.652Z,38.6
2018-07-20T07:51:22.761Z,38.6
2018-07-20T07:52:13.058Z,38.6
2018-07-20T07:53:02.870Z,38.7
2018-07-20T07:53:53.202Z,38.8
2018-07-20T07:54:43.057Z,38.9
2018-07-20T07:55:33.355Z,39
2018-07-20T07:56:23.394Z,39.1
2018-07-20T07:57:13.505Z,39.3
2018-07-20T07:58:03.496Z,39.5
2018-07-20T07:58:53.359Z,39.8
2018-07-20T07:59:43.637Z,40.2
2018-07-20T08:00:33.705Z,40.5
2018-07-20T08:01:23.749Z,40.8
2018-07-20T08:02:13.842Z,41.3
2018-07-20T08:03:03.759Z,42.1
2018-07-20T08:03:53.686Z,43.1
2018-07-20T08:04:43.766Z,44
2018-07-20T08:05:34.093Z,44.8
2018-07-20T08:06:24.150Z,45.5
2018-07-20T08:07:14.212Z,46.8
2018-07-20T08:08:04.051Z,48.3
2018-07-20T08:08:54.171Z,48.1
2018-07-20T08:09:44.800Z,47
2018-07-20T08:10:34.188Z,44.3
2018-07-20T08:11:24.634Z,41.6
2018-07-20T08:12:14.326Z,40.1
2018-07-20T08:13:04.375Z,39.3
2018-07-20T08:13:54.484Z,39.1
2018-07-20T08:14:44.783Z,39.2
2018-07-20T08:15:34.575Z,39.4
2018-07-20T08:16:24.655Z,39.7
2018-07-20T08:17:15.013Z,40.2
2018-07-20T08:18:04.745Z,40.8
2018-07-20T08:18:54.811Z,41.3
2018-07-20T08:19:45.187Z,41.9
2018-07-20T08:20:35.241Z,42.4
2018-07-20T08:21:24.830Z,42.9
2018-07-20T08:22:15.368Z,43.5
2018-07-20T08:23:05.259Z,44.4
2018-07-20T08:23:55.476Z,45.8
2018-07-20T08:24:45.566Z,47.6
2018-07-20T08:25:35.602Z,49.3
2018-07-20T08:26:25.722Z,49.4
2018-07-20T08:27:15.735Z,49.6
2018-07-20T08:28:05.888Z,49.3
2018-07-20T08:28:55.845Z,48.2
2018-07-20T08:29:45.917Z,46.6
2018-07-20T08:30:35.988Z,45.6
2018-07-20T08:31:26.053Z,45.6
2018-07-20T08:32:16.118Z,46.6
2018-07-20T08:33:05.906Z,47.7
2018-07-20T08:33:56.245Z,48.6
2018-07-20T08:34:46.058Z,49.3
2018-07-20T08:35:36.128Z,49.4
2018-07-20T08:36:25.883Z,49.3
2018-07-20T08:37:16.202Z,49.3
2018-07-20T08:38:06.574Z,49.4
2018-07-20T08:38:56.357Z,49.9
2018-07-20T08:39:46.689Z,50.4
2018-07-20T08:40:36.800Z,51
2018-07-20T08:41:26.837Z,50.9
2018-07-20T08:42:16.634Z,50.1
2018-07-20T08:43:06.968Z,49.6
2018-07-20T08:43:56.715Z,49.7
2018-07-20T08:44:47.083Z,50.5
2018-07-20T08:45:37.134Z,51.1
2018-07-20T08:46:27.078Z,51.8
2018-07-20T08:47:17.301Z,52.3
2018-07-20T08:48:07.336Z,52.5
2018-07-20T08:48:57.412Z,52.6
2018-07-20T08:49:47.490Z,52.6
2018-07-20T08:50:37.538Z,52.8
2018-07-20T08:51:27.599Z,53
2018-07-20T08:52:17.649Z,52.6
2018-07-20T08:53:07.733Z,52
2018-07-20T08:53:57.937Z,51.7
2018-07-20T08:54:47.884Z,52
2018-07-20T08:55:37.935Z,52.7
2018-07-20T08:56:27.985Z,53.4
2018-07-20T08:57:18.038Z,54.1
2018-07-20T08:58:07.866Z,54.4
2018-07-20T08:58:58.070Z,54.6
2018-07-20T08:59:48.252Z,54.6
2018-07-20T09:00:38.283Z,54.7
2018-07-20T09:01:28.364Z,54.9
2018-07-20T09:02:18.642Z,55.3
2018-07-20T09:03:08.606Z,55.6
2018-07-20T09:03:58.270Z,55.9
2018-07-20T09:04:48.631Z,56.2
2018-07-20T09:05:38.386Z,56.3
2018-07-20T09:06:28.210Z,56.5
2018-07-20T09:07:18.574Z,56.6
2018-07-20T09:08:08.862Z,56.9
2018-07-20T09:08:58.967Z,57.1
2018-07-20T09:09:48.993Z,57.4
2018-07-20T09:10:38.788Z,57.7
2018-07-20T09:11:29.242Z,57.9
2018-07-20T09:12:19.205Z,57.9
2018-07-20T09:13:09.271Z,57.9
2018-07-20T09:13:59.239Z,58.1
2018-07-20T09:14:49.386Z,58.3
2018-07-20T09:15:39.191Z,58.4
2018-07-20T09:16:29.510Z,58.6
2018-07-20T09:17:19.573Z,58.9
2018-07-20T09:18:09.659Z,59.3
2018-07-20T09:18:59.459Z,59.4
2018-07-20T09:19:49.502Z,59.7
2018-07-20T09:20:40.206Z,59.8
2018-07-20T09:21:29.652Z,59.5
2018-07-20T09:22:19.709Z,58.8
2018-07-20T09:23:10.070Z,58
2018-07-20T09:23:59.836Z,57.6
2018-07-20T09:24:50.163Z,57.3
2018-07-20T09:25:39.732Z,57.1
2018-07-20T09:26:30.300Z,57.3
2018-07-20T09:27:20.375Z,57.4
2018-07-20T09:28:10.470Z,57.3
2018-07-20T09:29:00.493Z,56.6
2018-07-20T09:29:50.564Z,55.8
2018-07-20T09:30:40.632Z,54.9
2018-07-20T09:31:30.409Z,54.3
2018-07-20T09:32:20.780Z,54.1
2018-07-20T09:33:10.815Z,54.7
2018-07-20T09:34:01.087Z,55.4
2018-07-20T09:34:50.968Z,56
2018-07-20T09:35:41.002Z,56.4
2018-07-20T09:36:31.065Z,56.6
2018-07-20T09:37:21.143Z,56.7
2018-07-20T09:38:10.634Z,56.9
2018-07-20T09:39:01.267Z,57.2
2018-07-20T09:39:51.392Z,57.6
2018-07-20T09:40:41.375Z,58.1
2018-07-20T09:41:31.163Z,58.4
2018-07-20T09:42:21.222Z,57.9
2018-07-20T09:43:11.609Z,57
2018-07-20T09:44:01.688Z,56
2018-07-20T09:44:51.695Z,55.2
2018-07-20T09:45:41.785Z,54.6
2018-07-20T09:46:31.827Z,54.1
2018-07-20T09:47:21.915Z,53.8
2018-07-20T09:48:11.956Z,53.3
2018-07-20T09:49:02.569Z,52.9
2018-07-20T09:49:52.106Z,52.6
2018-07-20T09:50:42.153Z,52.9
2018-07-20T09:51:31.957Z,53.5
2018-07-20T09:52:22.276Z,54
2018-07-20T09:53:12.342Z,54.5
2018-07-20T09:54:02.153Z,54.7
2018-07-20T09:54:52.182Z,54.9
2018-07-20T09:55:42.272Z,54.9
2018-07-20T09:56:32.607Z,54.8
2018-07-20T09:57:22.122Z,54.8
2018-07-20T09:58:12.733Z,55.2
2018-07-20T09:59:02.808Z,55.8
2018-07-20T09:59:53.370Z,56.4
2018-07-20T10:00:42.658Z,56.9
2018-07-20T10:01:32.728Z,56.8
2018-07-20T10:02:23.057Z,56.1
2018-07-20T10:03:13.141Z,55.2
2018-07-20T10:04:03.200Z,54.6
2018-07-20T10:04:53.458Z,54.5
2018-07-20T10:05:43.324Z,54.9
2018-07-20T10:06:33.374Z,55.6
2018-07-20T10:07:23.434Z,56.4
2018-07-20T10:08:13.526Z,56.7
2018-07-20T10:09:03.577Z,56.6
2018-07-20T10:09:53.661Z,56.8
2018-07-20T10:10:43.695Z,56.6
2018-07-20T10:11:33.273Z,56.1
2018-07-20T10:12:23.835Z,55.6
2018-07-20T10:13:13.882Z,55.6
2018-07-20T10:14:03.672Z,56.1
2018-07-20T10:14:54.060Z,56.9
2018-07-20T10:15:44.121Z,57.4
2018-07-20T10:16:34.136Z,57.6
2018-07-20T10:17:24.218Z,57.4
2018-07-20T10:18:14.008Z,57.3
2018-07-20T10:19:04.611Z,57.2
2018-07-20T10:19:54.150Z,57.5
2018-07-20T10:20:44.492Z,58
2018-07-20T10:21:34.535Z,58.6
2018-07-20T10:22:24.593Z,59.1
2018-07-20T10:23:14.369Z,59.3
2018-07-20T10:24:04.438Z,58.8
2018-07-20T10:24:54.772Z,57.9
2018-07-20T10:25:45.468Z,57.1
2018-07-20T10:26:34.905Z,56.6
2018-07-20T10:27:25.005Z,56.4
2018-07-20T10:28:15.050Z,56.4
2018-07-20T10:29:05.120Z,56.6
2018-07-20T10:29:55.167Z,57.1
2018-07-20T10:30:45.673Z,57.2
2018-07-20T10:31:35.292Z,57.3
2018-07-20T10:32:25.357Z,57.6
2018-07-20T10:33:15.435Z,57.9
2018-07-20T10:34:05.505Z,58.3
2018-07-20T10:34:55.574Z,58.7
2018-07-20T10:35:45.629Z,59.1
2018-07-20T10:36:35.867Z,59.1
2018-07-20T10:37:25.792Z,58.6
2018-07-20T10:38:15.805Z,57.9
2018-07-20T10:39:05.895Z,57.1
2018-07-20T10:39:55.943Z,56.3
2018-07-20T10:40:46.026Z,55.9
2018-07-20T10:41:35.812Z,55.9
2018-07-20T10:42:26.139Z,56.5
2018-07-20T10:43:16.540Z,57.4
2018-07-20T10:44:06.299Z,58.1
2018-07-20T10:44:56.323Z,58.3
2018-07-20T10:45:46.388Z,58.5
2018-07-20T10:46:35.902Z,58.6
2018-07-20T10:47:26.260Z,58.8
2018-07-20T10:48:16.624Z,59.1
2018-07-20T10:49:06.394Z,59.6
2018-07-20T10:49:56.161Z,59.9
2018-07-20T10:50:46.850Z,59.9
2018-07-20T10:51:36.861Z,60.2
2018-07-20T10:52:26.633Z,60.4
2018-07-20T10:53:16.973Z,60.2
2018-07-20T10:54:07.045Z,59.9
2018-07-20T10:54:57.135Z,59.4
2018-07-20T10:55:47.188Z,58.8
2018-07-20T10:56:36.679Z,58.3
2018-07-20T10:57:27.313Z,57.9
2018-07-20T10:58:17.361Z,57.6
2018-07-20T10:59:07.421Z,57.3
2018-07-20T10:59:56.923Z,57.1
2018-07-20T11:00:47.572Z,56.8
2018-07-20T11:01:38.256Z,56.8
2018-07-20T11:02:27.671Z,56.9
2018-07-20T11:03:17.457Z,57.1
2018-07-20T11:04:07.803Z,56.9
2018-07-20T11:04:57.866Z,56.8
2018-07-20T11:05:47.941Z,56.9
2018-07-20T11:06:37.996Z,57.1
2018-07-20T11:07:28.077Z,57.5
2018-07-20T11:08:18.130Z,57.4
2018-07-20T11:09:08.183Z,57.1
2018-07-20T11:09:58.250Z,56.6
2018-07-20T11:10:48.318Z,56.4
2018-07-20T11:11:38.424Z,56.3
2018-07-20T11:12:28.481Z,56.1
2018-07-20T11:13:18.516Z,56.1
2018-07-20T11:14:08.315Z,56.3
2018-07-20T11:14:58.380Z,56.3
2018-07-20T11:15:48.734Z,56.4
2018-07-20T11:16:38.892Z,56.3
2018-07-20T11:17:28.840Z,56.3
2018-07-20T11:18:18.916Z,56.5
2018-07-20T11:19:08.696Z,56.8
2018-07-20T11:19:59.042Z,56.8
2018-07-20T11:20:49.109Z,56.9
2018-07-20T11:21:39.198Z,56.9
2018-07-20T11:22:29.231Z,56.6
2018-07-20T11:23:18.749Z,56.2
2018-07-20T11:24:09.367Z,56.1
2018-07-20T11:24:59.440Z,55.9
2018-07-20T11:25:49.490Z,55.8
2018-07-20T11:26:39.555Z,55.8
2018-07-20T11:27:29.349Z,55.7
2018-07-20T11:28:19.725Z,55.5
2018-07-20T11:29:09.471Z,55.3